sensor_id;sensor_type;location;lat;lon;timestamp;pressure;altitude;pressure_sealevel;temperature;humidity
13434;BME280;6789;47.678;9.158;2022-10-16T00:04:14;96686.28;;;13.35;100.00
13434;BME280;6789;47.678;9.158;2022-10-16T00:42:02;96661.53;;;13.36;100.00
13434;BME280;6789;47.678;9.158;2022-10-16T00:47:46;96673.19;;;13.40;100.00
13434;BME280;6789;47.678;9.158;2022-10-16T00:53:49;96677.16;;;13.43;100.00
13434;BME280;6789;47.678;9.158;2022-10-16T00:59:37;96684.81;;;13.44;100.00
13434;BME280;6789;47.678;9.158;2022-10-16T01:05:08;96688.47;;;13.43;100.00
13434;BME280;6789;47.678;9.158;2022-10-16T01:17:06;96688.47;;;13.43;100.00
13434;BME280;6789;47.678;9.158;2022-10-16T01:30:02;96688.72;;;13.42;100.00
13434;BME280;6789;47.678;9.158;2022-10-16T01:35:38;96692.97;;;13.43;100.00
13434;BME280;6789;47.678;9.158;2022-10-16T01:45:59;96702.97;;;13.62;100.00
13434;BME280;6789;47.678;9.158;2022-10-16T01:51:52;96718.94;;;13.72;100.00
13434;BME280;6789;47.678;9.158;2022-10-16T01:56:48;96722.47;;;13.61;100.00
13434;BME280;6789;47.678;9.158;2022-10-16T02:01:49;96712.34;;;13.53;100.00
13434;BME280;6789;47.678;9.158;2022-10-16T02:06:42;96709.88;;;13.47;100.00
13434;BME280;6789;47.678;9.158;2022-10-16T02:11:34;96710.19;;;13.50;100.00
13434;BME280;6789;47.678;9.158;2022-10-16T02:16:39;96708.59;;;13.49;100.00
13434;BME280;6789;47.678;9.158;2022-10-16T02:22:12;96702.53;;;13.49;100.00
13434;BME280;6789;47.678;9.158;2022-10-16T02:27:40;96712.47;;;13.63;100.00
13434;BME280;6789;47.678;9.158;2022-10-16T02:32:50;96708.34;;;13.67;100.00
13434;BME280;6789;47.678;9.158;2022-10-16T02:38:16;96684.16;;;13.53;100.00
13434;BME280;6789;47.678;9.158;2022-10-16T02:43:32;96700.13;;;13.63;100.00
13434;BME280;6789;47.678;9.158;2022-10-16T02:48:50;96712.97;;;13.60;100.00
13434;BME280;6789;47.678;9.158;2022-10-16T02:53:59;96695.91;;;13.46;100.00
13434;BME280;6789;47.678;9.158;2022-10-16T02:59:57;96714.91;;;13.48;100.00
13434;BME280;6789;47.678;9.158;2022-10-16T03:05:30;96701.25;;;13.51;100.00
13434;BME280;6789;47.678;9.158;2022-10-16T03:10:48;96691.28;;;13.53;100.00
13434;BME280;6789;47.678;9.158;2022-10-16T03:15:56;96673.31;;;13.50;100.00
13434;BME280;6789;47.678;9.158;2022-10-16T03:21:22;96664.84;;;13.48;100.00
13434;BME280;6789;47.678;9.158;2022-10-16T03:32:30;96694.16;;;13.52;100.00
13434;BME280;6789;47.678;9.158;2022-10-16T03:38:50;96678.56;;;13.50;100.00
13434;BME280;6789;47.678;9.158;2022-10-16T03:44:46;96688.75;;;13.63;100.00
13434;BME280;6789;47.678;9.158;2022-10-16T03:49:38;96707.78;;;13.65;100.00
13434;BME280;6789;47.678;9.158;2022-10-16T03:54:30;96712.16;;;13.59;100.00
13434;BME280;6789;47.678;9.158;2022-10-16T03:59:21;96708.56;;;13.65;100.00
13434;BME280;6789;47.678;9.158;2022-10-16T04:04:14;96716.25;;;13.67;100.00
13434;BME280;6789;47.678;9.158;2022-10-16T04:09:27;96708.72;;;13.75;100.00
13434;BME280;6789;47.678;9.158;2022-10-16T04:14:49;96714.13;;;13.69;100.00
13434;BME280;6789;47.678;9.158;2022-10-16T04:20:14;96715.69;;;13.65;100.00
13434;BME280;6789;47.678;9.158;2022-10-16T04:25:21;96712.22;;;13.64;100.00
13434;BME280;6789;47.678;9.158;2022-10-16T04:31:23;96711.44;;;13.64;100.00
13434;BME280;6789;47.678;9.158;2022-10-16T04:36:49;96709.91;;;13.68;100.00
13434;BME280;6789;47.678;9.158;2022-10-16T04:41:57;96704.22;;;13.76;100.00
13434;BME280;6789;47.678;9.158;2022-10-16T04:47:05;96702.81;;;13.68;100.00
13434;BME280;6789;47.678;9.158;2022-10-16T04:52:14;96708.88;;;13.69;100.00
13434;BME280;6789;47.678;9.158;2022-10-16T04:57:20;96714.13;;;13.69;100.00
13434;BME280;6789;47.678;9.158;2022-10-16T05:02:26;96715.75;;;13.70;100.00
13434;BME280;6789;47.678;9.158;2022-10-16T05:07:59;96718.94;;;13.72;100.00
13434;BME280;6789;47.678;9.158;2022-10-16T05:13:18;96721.31;;;13.73;100.00
13434;BME280;6789;47.678;9.158;2022-10-16T05:18:24;96710.53;;;13.75;100.00
13434;BME280;6789;47.678;9.158;2022-10-16T05:23:43;96709.50;;;13.76;100.00
13434;BME280;6789;47.678;9.158;2022-10-16T05:28:50;96703.97;;;13.77;100.00
13434;BME280;6789;47.678;9.158;2022-10-16T05:34:03;96703.50;;;13.80;100.00
13434;BME280;6789;47.678;9.158;2022-10-16T05:39:32;96704.06;;;13.82;100.00
13434;BME280;6789;47.678;9.158;2022-10-16T05:44:44;96720.72;;;13.88;100.00
13434;BME280;6789;47.678;9.158;2022-10-16T05:50:06;96723.66;;;13.91;100.00
13434;BME280;6789;47.678;9.158;2022-10-16T05:55:26;96743.97;;;13.91;100.00
13434;BME280;6789;47.678;9.158;2022-10-16T06:00:33;96761.22;;;13.82;100.00
13434;BME280;6789;47.678;9.158;2022-10-16T06:06:14;96765.25;;;13.68;100.00
13434;BME280;6789;47.678;9.158;2022-10-16T06:11:40;96767.09;;;13.67;100.00
13434;BME280;6789;47.678;9.158;2022-10-16T06:16:49;96775.25;;;13.66;100.00
13434;BME280;6789;47.678;9.158;2022-10-16T06:22:23;96761.16;;;13.77;100.00
13434;BME280;6789;47.678;9.158;2022-10-16T06:27:40;96755.97;;;13.82;100.00
13434;BME280;6789;47.678;9.158;2022-10-16T06:32:50;96761.66;;;13.95;100.00
13434;BME280;6789;47.678;9.158;2022-10-16T06:37:59;96757.84;;;14.03;100.00
13434;BME280;6789;47.678;9.158;2022-10-16T06:43:14;96756.63;;;14.10;100.00
13434;BME280;6789;47.678;9.158;2022-10-16T06:48:24;96786.56;;;14.21;100.00
13434;BME280;6789;47.678;9.158;2022-10-16T06:53:55;96798.34;;;14.13;100.00
13434;BME280;6789;47.678;9.158;2022-10-16T06:59:25;96823.88;;;14.29;100.00
13434;BME280;6789;47.678;9.158;2022-10-16T07:04:41;96835.31;;;14.34;100.00
13434;BME280;6789;47.678;9.158;2022-10-16T07:09:47;96867.44;;;14.31;100.00
13434;BME280;6789;47.678;9.158;2022-10-16T07:14:54;96889.78;;;14.45;100.00
13434;BME280;6789;47.678;9.158;2022-10-16T07:20:13;96907.44;;;14.45;100.00
13434;BME280;6789;47.678;9.158;2022-10-16T07:25:19;96902.66;;;14.42;100.00
13434;BME280;6789;47.678;9.158;2022-10-16T07:30:36;96908.94;;;14.36;100.00
13434;BME280;6789;47.678;9.158;2022-10-16T07:35:54;96920.75;;;14.33;100.00
13434;BME280;6789;47.678;9.158;2022-10-16T07:41:05;96898.03;;;14.49;100.00
13434;BME280;6789;47.678;9.158;2022-10-16T07:46:12;96880.84;;;14.89;100.00
13434;BME280;6789;47.678;9.158;2022-10-16T07:51:23;96923.09;;;15.32;100.00
13434;BME280;6789;47.678;9.158;2022-10-16T07:56:31;96959.19;;;15.48;100.00
13434;BME280;6789;47.678;9.158;2022-10-16T08:01:38;96967.91;;;15.74;100.00
13434;BME280;6789;47.678;9.158;2022-10-16T08:07:07;96981.78;;;15.86;100.00
13434;BME280;6789;47.678;9.158;2022-10-16T08:12:15;96978.88;;;16.14;100.00
13434;BME280;6789;47.678;9.158;2022-10-16T08:17:21;96977.69;;;16.68;100.00
13434;BME280;6789;47.678;9.158;2022-10-16T08:22:47;96982.19;;;17.14;100.00
13434;BME280;6789;47.678;9.158;2022-10-16T08:27:59;96984.47;;;16.95;100.00
13434;BME280;6789;47.678;9.158;2022-10-16T08:39:34;97030.84;;;16.98;100.00
13434;BME280;6789;47.678;9.158;2022-10-16T08:50:27;97041.84;;;16.75;100.00
13434;BME280;6789;47.678;9.158;2022-10-16T08:55:45;97039.69;;;16.72;100.00
13434;BME280;6789;47.678;9.158;2022-10-16T09:01:04;97033.47;;;16.93;100.00
13434;BME280;6789;47.678;9.158;2022-10-16T09:11:53;97042.88;;;17.15;100.00
13434;BME280;6789;47.678;9.158;2022-10-16T09:28:38;97040.13;;;17.46;100.00
13434;BME280;6789;47.678;9.158;2022-10-16T09:34:43;97053.47;;;17.61;100.00
13434;BME280;6789;47.678;9.158;2022-10-16T09:39:52;97060.09;;;17.59;100.00
13434;BME280;6789;47.678;9.158;2022-10-16T09:44:59;97071.06;;;17.82;98.81
13434;BME280;6789;47.678;9.158;2022-10-16T09:50:28;97065.75;;;17.92;98.68
13434;BME280;6789;47.678;9.158;2022-10-16T09:55:34;97049.84;;;18.02;98.01
13434;BME280;6789;47.678;9.158;2022-10-16T10:00:48;97052.06;;;18.40;96.33
13434;BME280;6789;47.678;9.158;2022-10-16T10:05:58;97052.09;;;18.69;94.76
13434;BME280;6789;47.678;9.158;2022-10-16T10:11:14;97052.31;;;19.03;91.98
13434;BME280;6789;47.678;9.158;2022-10-16T10:16:27;97059.97;;;19.19;90.56
13434;BME280;6789;47.678;9.158;2022-10-16T10:21:38;97048.03;;;19.22;89.13
13434;BME280;6789;47.678;9.158;2022-10-16T10:27:17;97036.22;;;19.52;89.40
13434;BME280;6789;47.678;9.158;2022-10-16T10:56:28;97041.56;;;20.44;81.30
13434;BME280;6789;47.678;9.158;2022-10-16T11:07:45;97040.41;;;20.88;79.38
13434;BME280;6789;47.678;9.158;2022-10-16T11:25:26;97023.38;;;21.36;66.71
13434;BME280;6789;47.678;9.158;2022-10-16T11:36:25;97020.56;;;21.46;64.20
13434;BME280;6789;47.678;9.158;2022-10-16T11:52:51;96998.66;;;21.49;61.91
13434;BME280;6789;47.678;9.158;2022-10-16T11:58:25;97003.56;;;21.42;62.71
13434;BME280;6789;47.678;9.158;2022-10-16T12:04:28;96987.25;;;21.43;62.50
13434;BME280;6789;47.678;9.158;2022-10-16T12:09:40;96995.53;;;21.42;61.13
13434;BME280;6789;47.678;9.158;2022-10-16T12:15:41;96992.28;;;21.45;60.22
13434;BME280;6789;47.678;9.158;2022-10-16T12:20:33;96993.66;;;21.42;58.39
13434;BME280;6789;47.678;9.158;2022-10-16T12:25:42;96998.09;;;21.05;60.14
13434;BME280;6789;47.678;9.158;2022-10-16T12:31:08;96986.53;;;21.14;60.44
13434;BME280;6789;47.678;9.158;2022-10-16T12:36:34;96973.34;;;21.23;60.44
13434;BME280;6789;47.678;9.158;2022-10-16T12:41:41;96974.81;;;21.34;60.89
13434;BME280;6789;47.678;9.158;2022-10-16T12:46:47;96973.22;;;21.56;60.84
13434;BME280;6789;47.678;9.158;2022-10-16T12:51:59;96961.91;;;21.82;61.10
13434;BME280;6789;47.678;9.158;2022-10-16T12:57:26;96960.88;;;22.15;61.63
13434;BME280;6789;47.678;9.158;2022-10-16T13:02:54;96956.03;;;22.35;61.38
13434;BME280;6789;47.678;9.158;2022-10-16T13:14:35;96964.34;;;22.66;61.49
13434;BME280;6789;47.678;9.158;2022-10-16T13:31:25;96953.53;;;22.07;69.95
13434;BME280;6789;47.678;9.158;2022-10-16T13:42:24;96962.38;;;22.39;67.60
13434;BME280;6789;47.678;9.158;2022-10-16T13:47:50;96956.31;;;22.66;67.47
13434;BME280;6789;47.678;9.158;2022-10-16T13:53:14;96967.25;;;22.83;66.39
13434;BME280;6789;47.678;9.158;2022-10-16T13:58:57;96962.69;;;22.97;66.59
13434;BME280;6789;47.678;9.158;2022-10-16T14:04:16;96962.03;;;23.04;65.59
13434;BME280;6789;47.678;9.158;2022-10-16T14:09:48;96969.34;;;22.99;63.96
13434;BME280;6789;47.678;9.158;2022-10-16T14:14:58;96969.34;;;22.99;63.66
13434;BME280;6789;47.678;9.158;2022-10-16T14:20:15;96965.94;;;22.80;63.91
13434;BME280;6789;47.678;9.158;2022-10-16T14:25:48;96968.00;;;22.70;64.90
13434;BME280;6789;47.678;9.158;2022-10-16T14:36:28;96965.38;;;22.51;65.99
13434;BME280;6789;47.678;9.158;2022-10-16T14:41:45;96969.09;;;22.37;66.60
13434;BME280;6789;47.678;9.158;2022-10-16T14:47:13;96963.78;;;22.00;67.44
13434;BME280;6789;47.678;9.158;2022-10-16T14:52:21;96963.84;;;21.95;68.62
13434;BME280;6789;47.678;9.158;2022-10-16T14:57:31;96962.34;;;21.89;69.22
13434;BME280;6789;47.678;9.158;2022-10-16T15:02:49;96965.22;;;21.74;69.43
13434;BME280;6789;47.678;9.158;2022-10-16T15:08:04;96962.19;;;21.62;69.80
13434;BME280;6789;47.678;9.158;2022-10-16T15:13:23;96963.56;;;21.60;70.11
13434;BME280;6789;47.678;9.158;2022-10-16T15:18:31;96970.84;;;21.55;69.66
13434;BME280;6789;47.678;9.158;2022-10-16T15:23:43;96968.38;;;21.58;70.46
13434;BME280;6789;47.678;9.158;2022-10-16T15:28:49;96968.91;;;21.60;70.22
13434;BME280;6789;47.678;9.158;2022-10-16T15:33:56;96977.19;;;21.58;69.80
13434;BME280;6789;47.678;9.158;2022-10-16T15:39:20;96991.16;;;21.74;72.15
13434;BME280;6789;47.678;9.158;2022-10-16T15:44:28;96993.78;;;21.55;72.86
13434;BME280;6789;47.678;9.158;2022-10-16T15:49:37;96994.44;;;21.43;74.41
13434;BME280;6789;47.678;9.158;2022-10-16T15:54:44;96995.34;;;21.33;75.18
13434;BME280;6789;47.678;9.158;2022-10-16T15:59:54;97000.72;;;21.10;77.06
13434;BME280;6789;47.678;9.158;2022-10-16T16:05:02;96998.50;;;20.93;78.35
13434;BME280;6789;47.678;9.158;2022-10-16T16:10:13;97003.00;;;20.65;80.48
13434;BME280;6789;47.678;9.158;2022-10-16T16:15:24;96999.34;;;20.56;81.55
13434;BME280;6789;47.678;9.158;2022-10-16T16:21:00;97013.94;;;20.30;83.22
13434;BME280;6789;47.678;9.158;2022-10-16T16:31:52;97015.91;;;19.71;88.39
13434;BME280;6789;47.678;9.158;2022-10-16T16:37:04;97018.94;;;19.45;90.58
13434;BME280;6789;47.678;9.158;2022-10-16T16:42:11;97029.16;;;19.18;91.90
13434;BME280;6789;47.678;9.158;2022-10-16T16:47:19;97036.34;;;18.93;91.88
13434;BME280;6789;47.678;9.158;2022-10-16T16:52:25;97047.81;;;18.73;94.70
13434;BME280;6789;47.678;9.158;2022-10-16T16:57:35;97049.41;;;18.64;97.05
13434;BME280;6789;47.678;9.158;2022-10-16T17:02:52;97064.31;;;18.51;100.00
13434;BME280;6789;47.678;9.158;2022-10-16T17:08:08;97074.88;;;18.21;100.00
13434;BME280;6789;47.678;9.158;2022-10-16T17:13:23;97084.88;;;17.94;100.00
13434;BME280;6789;47.678;9.158;2022-10-16T17:18:40;97086.91;;;17.67;100.00
13434;BME280;6789;47.678;9.158;2022-10-16T17:23:51;97104.22;;;17.33;100.00
13434;BME280;6789;47.678;9.158;2022-10-16T17:29:00;97107.81;;;17.13;100.00
13434;BME280;6789;47.678;9.158;2022-10-16T17:34:08;97108.75;;;16.97;100.00
13434;BME280;6789;47.678;9.158;2022-10-16T17:39:17;97115.00;;;16.81;100.00
13434;BME280;6789;47.678;9.158;2022-10-16T17:45:10;97116.72;;;16.65;100.00
13434;BME280;6789;47.678;9.158;2022-10-16T17:50:26;97120.22;;;16.44;100.00
13434;BME280;6789;47.678;9.158;2022-10-16T17:55:41;97125.63;;;16.28;100.00
13434;BME280;6789;47.678;9.158;2022-10-16T18:00:47;97136.59;;;16.15;100.00
13434;BME280;6789;47.678;9.158;2022-10-16T18:06:00;97145.66;;;15.98;100.00
13434;BME280;6789;47.678;9.158;2022-10-16T18:11:10;97144.84;;;15.97;100.00
13434;BME280;6789;47.678;9.158;2022-10-16T18:16:24;97155.78;;;15.84;100.00
13434;BME280;6789;47.678;9.158;2022-10-16T18:21:31;97151.06;;;15.65;100.00
13434;BME280;6789;47.678;9.158;2022-10-16T18:26:39;97151.72;;;15.56;100.00
13434;BME280;6789;47.678;9.158;2022-10-16T18:31:49;97146.31;;;15.46;100.00
13434;BME280;6789;47.678;9.158;2022-10-16T18:36:59;97150.41;;;15.37;100.00
13434;BME280;6789;47.678;9.158;2022-10-16T18:42:05;97158.47;;;15.25;100.00
13434;BME280;6789;47.678;9.158;2022-10-16T18:47:32;97152.84;;;15.22;100.00
13434;BME280;6789;47.678;9.158;2022-10-16T18:53:08;97159.00;;;15.27;100.00
13434;BME280;6789;47.678;9.158;2022-10-16T18:58:33;97154.84;;;15.15;100.00
13434;BME280;6789;47.678;9.158;2022-10-16T19:03:53;97154.78;;;14.94;100.00
13434;BME280;6789;47.678;9.158;2022-10-16T19:08:59;97158.69;;;14.91;100.00
13434;BME280;6789;47.678;9.158;2022-10-16T19:14:25;97173.97;;;14.89;100.00
13434;BME280;6789;47.678;9.158;2022-10-16T19:19:40;97171.66;;;14.76;100.00
13434;BME280;6789;47.678;9.158;2022-10-16T19:24:46;97166.91;;;14.62;100.00
13434;BME280;6789;47.678;9.158;2022-10-16T19:29:56;97176.13;;;14.59;100.00
13434;BME280;6789;47.678;9.158;2022-10-16T19:35:22;97174.97;;;14.55;100.00
13434;BME280;6789;47.678;9.158;2022-10-16T19:40:31;97181.91;;;14.45;100.00
13434;BME280;6789;47.678;9.158;2022-10-16T19:45:38;97179.47;;;14.27;100.00
13434;BME280;6789;47.678;9.158;2022-10-16T19:51:37;97187.78;;;14.19;100.00
13434;BME280;6789;47.678;9.158;2022-10-16T19:56:47;97182.72;;;14.18;100.00
13434;BME280;6789;47.678;9.158;2022-10-16T20:02:24;97183.66;;;14.12;100.00
13434;BME280;6789;47.678;9.158;2022-10-16T20:07:52;97184.88;;;14.09;100.00
13434;BME280;6789;47.678;9.158;2022-10-16T20:13:00;97188.13;;;14.11;100.00
13434;BME280;6789;47.678;9.158;2022-10-16T20:18:32;97187.44;;;14.04;100.00
13434;BME280;6789;47.678;9.158;2022-10-16T20:23:39;97187.59;;;13.98;100.00
13434;BME280;6789;47.678;9.158;2022-10-16T20:29:09;97190.69;;;13.95;100.00
13434;BME280;6789;47.678;9.158;2022-10-16T20:34:15;97188.03;;;13.95;100.00
13434;BME280;6789;47.678;9.158;2022-10-16T20:39:37;97187.94;;;13.90;100.00
13434;BME280;6789;47.678;9.158;2022-10-16T20:44:47;97204.69;;;13.84;100.00
13434;BME280;6789;47.678;9.158;2022-10-16T20:50:21;97210.47;;;13.69;100.00
13434;BME280;6789;47.678;9.158;2022-10-16T20:55:36;97215.38;;;13.66;100.00
13434;BME280;6789;47.678;9.158;2022-10-16T21:00:44;97222.13;;;13.62;100.00
13434;BME280;6789;47.678;9.158;2022-10-16T21:05:51;97234.41;;;13.56;100.00
13434;BME280;6789;47.678;9.158;2022-10-16T21:10:52;97235.88;;;13.64;100.00
13434;BME280;6789;47.678;9.158;2022-10-16T21:16:01;97254.91;;;13.66;100.00
13434;BME280;6789;47.678;9.158;2022-10-16T21:21:26;97274.03;;;13.50;100.00
13434;BME280;6789;47.678;9.158;2022-10-16T21:26:54;97275.88;;;13.50;100.00
13434;BME280;6789;47.678;9.158;2022-10-16T21:32:00;97285.16;;;13.52;100.00
13434;BME280;6789;47.678;9.158;2022-10-16T21:37:17;97292.84;;;13.42;100.00
13434;BME280;6789;47.678;9.158;2022-10-16T21:42:36;97295.22;;;13.32;100.00
13434;BME280;6789;47.678;9.158;2022-10-16T21:47:42;97295.19;;;13.21;100.00
13434;BME280;6789;47.678;9.158;2022-10-16T21:53:12;97302.06;;;13.10;100.00
13434;BME280;6789;47.678;9.158;2022-10-16T21:58:19;97297.78;;;12.98;100.00
13434;BME280;6789;47.678;9.158;2022-10-16T22:03:26;97290.84;;;12.85;100.00
13434;BME280;6789;47.678;9.158;2022-10-16T22:08:33;97284.38;;;12.88;100.00
13434;BME280;6789;47.678;9.158;2022-10-16T22:13:41;97296.13;;;12.85;100.00
13434;BME280;6789;47.678;9.158;2022-10-16T22:18:53;97286.13;;;12.76;100.00
13434;BME280;6789;47.678;9.158;2022-10-16T22:24:00;97287.81;;;12.71;100.00
13434;BME280;6789;47.678;9.158;2022-10-16T22:29:07;97296.72;;;12.70;100.00
13434;BME280;6789;47.678;9.158;2022-10-16T22:34:13;97298.00;;;12.67;100.00
13434;BME280;6789;47.678;9.158;2022-10-16T22:39:19;97289.31;;;12.67;100.00
13434;BME280;6789;47.678;9.158;2022-10-16T22:44:27;97279.56;;;12.67;100.00
13434;BME280;6789;47.678;9.158;2022-10-16T22:49:33;97280.22;;;12.63;100.00
13434;BME280;6789;47.678;9.158;2022-10-16T22:54:39;97277.59;;;12.63;100.00
13434;BME280;6789;47.678;9.158;2022-10-16T22:59:46;97275.44;;;12.60;100.00
13434;BME280;6789;47.678;9.158;2022-10-16T23:04:52;97281.34;;;12.55;100.00
13434;BME280;6789;47.678;9.158;2022-10-16T23:09:58;97282.25;;;12.49;100.00
13434;BME280;6789;47.678;9.158;2022-10-16T23:15:20;97288.53;;;12.48;100.00
13434;BME280;6789;47.678;9.158;2022-10-16T23:20:50;97293.22;;;12.46;100.00
13434;BME280;6789;47.678;9.158;2022-10-16T23:26:27;97301.03;;;12.35;100.00
13434;BME280;6789;47.678;9.158;2022-10-16T23:31:54;97296.22;;;12.32;100.00
13434;BME280;6789;47.678;9.158;2022-10-16T23:37:40;97277.75;;;12.38;100.00
13434;BME280;6789;47.678;9.158;2022-10-16T23:43:20;97275.09;;;12.38;100.00
13434;BME280;6789;47.678;9.158;2022-10-16T23:48:39;97269.09;;;12.49;100.00
13434;BME280;6789;47.678;9.158;2022-10-16T23:54:12;97261.31;;;12.54;100.00
13434;BME280;6789;47.678;9.158;2022-10-16T23:59:19;97258.78;;;12.48;100.00
